Minerva Atlantica — ZCPR7 — position and weather

sailwx.info

Track history (hours):
 
Tides and Currents Weather Stations Pressure Air Temp Water Temp Dewpoint Dewpoint Depression Visibility Wind Speed Wind Dir Waves Ship Positions

Minerva Atlantica

Last reported at 2017-May-08 07:34 UTC. Time now 2017-May-23 03:19 UTC.
Position N 31°02' E 032°19'.
Warning: this ship's position is 14 days out of date.

Length 250 m; draft 14.3 m.

Type: Ship (hazmat cat A). MMSI: 319161000.

Date/timePositionNaut miles runAvg speedWind from/ knotsBaromVisibWave heightAir tempDewpointWater temp
2017-May-08 07:34N 31°02' E 032°19'1 9.5
2017-May-08 07:30N 31°02' E 032°19'4 8.9
2017-May-08 07:01N 31°07' E 032°19'4 7.8
2017-May-08 06:30N 31°10' E 032°20'3 6.7
2017-May-08 06:00N 31°14' E 032°21'3 6.8
2017-May-08 05:30N 31°17' E 032°22'5 8.5
2017-May-08 04:56N 31°22' E 032°23'4 9.3
2017-May-08 04:27N 31°26' E 032°24'4 4.6
2017-May-08 03:41N 31°28' E 032°21'1 5.0
2017-May-08 03:25N 31°28' E 032°19'15 1.5
2017-May-07 16:54N 31°38' E 032°05'410.3
2017-May-07 16:30N 31°41' E 032°02'812.3
2017-May-07 15:53N 31°46' E 031°56'513.1
2017-May-07 15:30N 31°48' E 031°51'913.7
2017-May-07 14:49N 31°51' E 031°40'2113.8
2017-May-07 13:19N 31°56' E 031°16'  
2017-May-05 05:56N 35°06' E 017°42'512.6
2017-May-05 05:30N 35°07' E 017°35'612.2
2017-May-05 05:00N 35°09' E 017°28'612.2
2017-May-05 04:30N 35°10' E 017°21'612.3
2017-May-05 04:01N 35°12' E 017°14'1812.6
2017-May-05 02:37N 35°17' E 016°53'112.9
2017-May-05 02:30N 35°17' E 016°51'712.8
2017-May-05 01:57N 35°19' E 016°43'612.6
2017-May-05 01:29N 35°21' E 016°36'612.6
2017-May-05 01:00N 35°22' E 016°29'712.6
2017-May-05 00:29N 35°24' E 016°21'612.7
2017-May-05 00:00N 35°25' E 016°14'612.9
2017-May-04 23:30N 35°27' E 016°06'713.0
2017-May-04 23:00N 35°29' E 015°58'713.2
2017-May-04 22:30N 35°31' E 015°51'713.2
2017-May-04 22:00N 35°33' E 015°43'613.0
2017-May-04 21:30N 35°34' E 015°35'712.7
2017-May-04 20:59N 35°36' E 015°27'612.6
2017-May-04 20:30N 35°38' E 015°20'612.5
2017-May-04 20:00N 35°39' E 015°13'612.2
2017-May-04 19:30N 35°41' E 015°05'612.2
2017-May-04 19:00N 35°43' E 014°58'612.2
2017-May-04 18:30N 35°44' E 014°51'812.3
2017-May-04 17:51N 35°46' E 014°42'412.2
2017-May-04 17:30N 35°48' E 014°37'3 0.4
2017-May-04 09:21N 35°49' E 014°33'0 0.0
2017-May-04 07:21N 35°49' E 014°33'0 0.0
2017-May-04 04:15N 35°49' E 014°33'0 0.0
2017-May-04 03:57N 35°49' E 014°33'0 0.0
2017-May-04 02:51N 35°49' E 014°33'0 0.0
2017-May-04 02:30N 35°49' E 014°33'0 0.0
2017-May-04 02:00N 35°49' E 014°33'0 0.0
2017-May-04 00:30N 35°49' E 014°33'0 0.0
2017-May-03 20:09N 35°49' E 014°33'0 0.0
2017-May-03 19:57N 35°49' E 014°33'0 0.0
2017-May-03 19:18N 35°49' E 014°33'0 0.0
2017-May-03 19:00N 35°49' E 014°33'0 0.8
2017-May-03 18:30N 35°49' E 014°33'3 5.1
2017-May-03 18:00N 35°48' E 014°36'4 7.1
2017-May-03 17:30N 35°51' E 014°37'4 7.9
2017-May-03 17:00N 35°55' E 014°37'4 7.9
2017-May-03 16:30N 35°59' E 014°36'4 8.2
2017-May-03 16:00N 36°03' E 014°34'612.0
2017-May-03 15:30N 36°08' E 014°30'612.8
2017-May-03 15:00N 36°13' E 014°25'1312.9
2017-May-03 14:00N 36°20' E 014°12'612.9
2017-May-03 13:30N 36°24' E 014°05'612.7
2017-May-03 13:00N 36°27' E 013°59'612.9
2017-May-03 12:30N 36°33' E 013°55'713.0
2017-May-03 12:00N 36°37' E 013°48'612.9
2017-May-03 11:30N 36°41' E 013°42'612.8
2017-May-03 11:00N 36°45' E 013°36'612.8
2017-May-03 10:30N 36°49' E 013°30'612.9
2017-May-03 10:00N 36°53' E 013°23'713.0
2017-May-03 09:30N 36°56' E 013°16'713.3
2017-May-03 08:59N 36°58' E 013°08'713.3
2017-May-03 08:30N 37°01' E 013°00'713.3
2017-May-03 08:00N 37°03' E 012°52'613.3
2017-May-03 07:30N 37°05' E 012°45'713.0
2017-May-03 07:00N 37°07' E 012°37'713.3
2017-May-03 06:30N 37°10' E 012°29'612.9
2017-May-03 06:00N 37°12' E 012°22'9212.3
2017-May-02 22:29N 37°31' E 010°28'  
2017-Apr-30 08:09N 36°01' W 005°06'213.3
2017-Apr-30 07:59N 36°01' W 005°09'714.5
2017-Apr-30 07:31N 35°60' W 005°17'714.4
2017-Apr-30 07:01N 35°58' W 005°26'713.6
2017-Apr-30 06:31N 35°56' W 005°34'714.4
2017-Apr-30 06:00N 35°55' W 005°43'815.3
2017-Apr-30 05:30N 35°54' W 005°52'915.1
2017-Apr-30 04:54N 35°54' W 006°04'23611.2
2017-Apr-29 07:54N 38°12' W 010°03'512.5
2017-Apr-29 07:30N 38°16' W 010°05'612.6
2017-Apr-29 07:00N 38°22' W 010°06'612.3
2017-Apr-29 06:30N 38°28' W 010°08'612.1
2017-Apr-29 06:00N 38°34' W 010°10'612.2
2017-Apr-29 05:30N 38°40' W 010°12'612.2
2017-Apr-29 05:00N 38°46' W 010°12'611.8
2017-Apr-29 04:30N 38°52' W 010°12'611.8
2017-Apr-29 04:00N 38°58' W 010°12'612.0
2017-Apr-29 03:30N 39°04' W 010°12'611.9
2017-Apr-29 03:00N 39°10' W 010°12'611.9
2017-Apr-29 02:30N 39°16' W 010°12'712.1
2017-Apr-29 01:57N 39°23' W 010°12'3912.2
2017-Apr-28 22:46N 40°02' W 010°12'311.9
2017-Apr-28 22:30N 40°05' W 010°12'712.3
2017-Apr-28 21:58N 40°12' W 010°12'612.3
2017-Apr-28 21:30N 40°17' W 010°12'612.7
2017-Apr-28 21:00N 40°24' W 010°12'612.3
2017-Apr-28 20:30N 40°30' W 010°12'612.4
2017-Apr-28 20:00N 40°36' W 010°12'612.3
2017-Apr-28 19:30N 40°42' W 010°12'612.2
2017-Apr-28 19:00N 40°48' W 010°12'612.3
2017-Apr-28 18:30N 40°54' W 010°12'612.5
2017-Apr-28 18:00N 41°00' W 010°12'612.4
2017-Apr-28 17:30N 41°07' W 010°12'812.4
2017-Apr-28 16:52N 41°14' W 010°12'  
Track history (hours):
 
Tides and Currents Weather Stations Pressure Air Temp Water Temp Dewpoint Dewpoint Depression Visibility Wind Speed Wind Dir Waves Ship Positions

Minerva Atlantica

Last reported at 2017-May-08 07:34 UTC. Time now 2017-May-23 03:19 UTC.
Position N 31°02' E 032°19'.
Warning: this ship's position is 14 days out of date.

Length 250 m; draft 14.3 m.

Type: Ship (hazmat cat A). MMSI: 319161000.

Date/timePositionNaut miles runAvg speedWind from/ knotsBaromVisibWave heightAir tempDewpointWater temp
2017-May-08 07:34N 31°02' E 032°19'1 9.5
2017-May-08 07:30N 31°02' E 032°19'4 8.9
2017-May-08 07:01N 31°07' E 032°19'4 7.8
2017-May-08 06:30N 31°10' E 032°20'3 6.7
2017-May-08 06:00N 31°14' E 032°21'3 6.8
2017-May-08 05:30N 31°17' E 032°22'5 8.5
2017-May-08 04:56N 31°22' E 032°23'4 9.3
2017-May-08 04:27N 31°26' E 032°24'4 4.6
2017-May-08 03:41N 31°28' E 032°21'1 5.0
2017-May-08 03:25N 31°28' E 032°19'15 1.5
2017-May-07 16:54N 31°38' E 032°05'410.3
2017-May-07 16:30N 31°41' E 032°02'812.3
2017-May-07 15:53N 31°46' E 031°56'513.1
2017-May-07 15:30N 31°48' E 031°51'913.7
2017-May-07 14:49N 31°51' E 031°40'2113.8
2017-May-07 13:19N 31°56' E 031°16'  
2017-May-05 05:56N 35°06' E 017°42'512.6
2017-May-05 05:30N 35°07' E 017°35'612.2
2017-May-05 05:00N 35°09' E 017°28'612.2
2017-May-05 04:30N 35°10' E 017°21'612.3
2017-May-05 04:01N 35°12' E 017°14'1812.6
2017-May-05 02:37N 35°17' E 016°53'112.9
2017-May-05 02:30N 35°17' E 016°51'712.8
2017-May-05 01:57N 35°19' E 016°43'612.6
2017-May-05 01:29N 35°21' E 016°36'612.6
2017-May-05 01:00N 35°22' E 016°29'712.6
2017-May-05 00:29N 35°24' E 016°21'612.7
2017-May-05 00:00N 35°25' E 016°14'612.9
2017-May-04 23:30N 35°27' E 016°06'713.0
2017-May-04 23:00N 35°29' E 015°58'713.2
2017-May-04 22:30N 35°31' E 015°51'713.2
2017-May-04 22:00N 35°33' E 015°43'613.0
2017-May-04 21:30N 35°34' E 015°35'712.7
2017-May-04 20:59N 35°36' E 015°27'612.6
2017-May-04 20:30N 35°38' E 015°20'612.5
2017-May-04 20:00N 35°39' E 015°13'612.2
2017-May-04 19:30N 35°41' E 015°05'612.2
2017-May-04 19:00N 35°43' E 014°58'612.2
2017-May-04 18:30N 35°44' E 014°51'812.3
2017-May-04 17:51N 35°46' E 014°42'412.2
2017-May-04 17:30N 35°48' E 014°37'3 0.4
2017-May-04 09:21N 35°49' E 014°33'0 0.0
2017-May-04 07:21N 35°49' E 014°33'0 0.0
2017-May-04 04:15N 35°49' E 014°33'0 0.0
2017-May-04 03:57N 35°49' E 014°33'0 0.0
2017-May-04 02:51N 35°49' E 014°33'0 0.0
2017-May-04 02:30N 35°49' E 014°33'0 0.0
2017-May-04 02:00N 35°49' E 014°33'0 0.0
2017-May-04 00:30N 35°49' E 014°33'0 0.0
2017-May-03 20:09N 35°49' E 014°33'0 0.0
2017-May-03 19:57N 35°49' E 014°33'0 0.0
2017-May-03 19:18N 35°49' E 014°33'0 0.0
2017-May-03 19:00N 35°49' E 014°33'0 0.8
2017-May-03 18:30N 35°49' E 014°33'3 5.1
2017-May-03 18:00N 35°48' E 014°36'4 7.1
2017-May-03 17:30N 35°51' E 014°37'4 7.9
2017-May-03 17:00N 35°55' E 014°37'4 7.9
2017-May-03 16:30N 35°59' E 014°36'4 8.2
2017-May-03 16:00N 36°03' E 014°34'612.0
2017-May-03 15:30N 36°08' E 014°30'612.8
2017-May-03 15:00N 36°13' E 014°25'1312.9
2017-May-03 14:00N 36°20' E 014°12'612.9
2017-May-03 13:30N 36°24' E 014°05'612.7
2017-May-03 13:00N 36°27' E 013°59'612.9
2017-May-03 12:30N 36°33' E 013°55'713.0
2017-May-03 12:00N 36°37' E 013°48'612.9
2017-May-03 11:30N 36°41' E 013°42'612.8
2017-May-03 11:00N 36°45' E 013°36'612.8
2017-May-03 10:30N 36°49' E 013°30'612.9
2017-May-03 10:00N 36°53' E 013°23'713.0
2017-May-03 09:30N 36°56' E 013°16'713.3
2017-May-03 08:59N 36°58' E 013°08'713.3
2017-May-03 08:30N 37°01' E 013°00'713.3
2017-May-03 08:00N 37°03' E 012°52'613.3
2017-May-03 07:30N 37°05' E 012°45'713.0
2017-May-03 07:00N 37°07' E 012°37'713.3
2017-May-03 06:30N 37°10' E 012°29'612.9
2017-May-03 06:00N 37°12' E 012°22'9212.3
2017-May-02 22:29N 37°31' E 010°28'  
2017-Apr-30 08:09N 36°01' W 005°06'213.3
2017-Apr-30 07:59N 36°01' W 005°09'714.5
2017-Apr-30 07:31N 35°60' W 005°17'714.4
2017-Apr-30 07:01N 35°58' W 005°26'713.6
2017-Apr-30 06:31N 35°56' W 005°34'714.4
2017-Apr-30 06:00N 35°55' W 005°43'815.3
2017-Apr-30 05:30N 35°54' W 005°52'915.1
2017-Apr-30 04:54N 35°54' W 006°04'23611.2
2017-Apr-29 07:54N 38°12' W 010°03'512.5
2017-Apr-29 07:30N 38°16' W 010°05'612.6
2017-Apr-29 07:00N 38°22' W 010°06'612.3
2017-Apr-29 06:30N 38°28' W 010°08'612.1
2017-Apr-29 06:00N 38°34' W 010°10'612.2
2017-Apr-29 05:30N 38°40' W 010°12'612.2
2017-Apr-29 05:00N 38°46' W 010°12'611.8
2017-Apr-29 04:30N 38°52' W 010°12'611.8
2017-Apr-29 04:00N 38°58' W 010°12'612.0
2017-Apr-29 03:30N 39°04' W 010°12'611.9
2017-Apr-29 03:00N 39°10' W 010°12'611.9
2017-Apr-29 02:30N 39°16' W 010°12'712.1
2017-Apr-29 01:57N 39°23' W 010°12'3912.2
2017-Apr-28 22:46N 40°02' W 010°12'311.9
2017-Apr-28 22:30N 40°05' W 010°12'712.3
2017-Apr-28 21:58N 40°12' W 010°12'612.3
2017-Apr-28 21:30N 40°17' W 010°12'612.7
2017-Apr-28 21:00N 40°24' W 010°12'612.3
2017-Apr-28 20:30N 40°30' W 010°12'612.4
2017-Apr-28 20:00N 40°36' W 010°12'612.3
2017-Apr-28 19:30N 40°42' W 010°12'612.2
2017-Apr-28 19:00N 40°48' W 010°12'612.3
2017-Apr-28 18:30N 40°54' W 010°12'612.5
2017-Apr-28 18:00N 41°00' W 010°12'612.4
2017-Apr-28 17:30N 41°07' W 010°12'812.4
2017-Apr-28 16:52N 41°14' W 010°12'  

Dump ship's entire track history